createdAt,value
2023-03-06T08:34:22.462Z,25.30
2023-03-06T08:36:24.953Z,25.35
2023-03-06T08:38:27.339Z,28.40
2023-03-06T08:40:30.599Z,21.90
2023-03-06T08:42:33.252Z,22.23
2023-03-06T08:44:35.659Z,27.63
2023-03-06T08:46:38.305Z,22.15
2023-03-06T08:48:40.823Z,23.90
2023-03-06T08:50:43.289Z,22.33
2023-03-06T08:52:46.407Z,24.05
2023-03-06T08:54:48.798Z,22.50
2023-03-06T08:56:51.269Z,26.27
2023-03-06T08:58:55.192Z,25.93
2023-03-06T09:00:58.169Z,22.80
2023-03-06T09:03:00.828Z,22.90
2023-03-06T09:05:07.516Z,26.27
2023-03-06T09:07:09.916Z,25.15
2023-03-06T09:09:13.560Z,26.60
2023-03-06T09:11:16.472Z,24.13
2023-03-06T09:13:18.919Z,23.30
2023-03-06T09:15:22.294Z,27.55
2023-03-06T09:17:24.833Z,25.75
2023-03-06T09:19:27.264Z,28.27
2023-03-06T09:21:29.864Z,24.75
2023-03-06T09:23:33.060Z,26.48
2023-03-06T09:25:35.784Z,20.65
2023-03-06T09:27:38.214Z,23.90
2023-03-06T09:29:40.729Z,25.80
2023-03-06T09:31:43.379Z,23.60
2023-03-06T09:33:46.626Z,38.95
2023-03-06T09:35:51.229Z,24.13
2023-03-06T09:37:53.718Z,29.27
2023-03-06T09:39:56.431Z,34.90
2023-03-06T09:41:59.124Z,27.02
2023-03-06T09:44:06.087Z,32.90
2023-03-06T09:46:25.476Z,28.02
2023-03-06T09:48:58.071Z,36.40
2023-03-06T09:51:05.251Z,28.13
2023-03-06T09:53:41.263Z,26.88
2023-03-06T09:55:56.941Z,23.63
2023-03-06T09:58:21.043Z,27.52
2023-03-06T10:00:51.267Z,25.70
2023-03-06T10:03:29.838Z,23.40
2023-03-06T10:05:45.046Z,24.27
2023-03-06T10:08:00.970Z,24.80
2023-03-06T10:10:07.288Z,22.83
2023-03-06T10:12:26.224Z,24.33
2023-03-06T10:14:45.032Z,25.27
2023-03-06T10:16:48.388Z,18.23
2023-03-06T10:18:51.462Z,21.48
2023-03-06T10:21:04.745Z,22.25
2023-03-06T10:23:25.621Z,24.02
2023-03-06T10:25:53.808Z,22.60
2023-03-06T10:28:16.218Z,20.83
2023-03-06T10:30:45.893Z,22.30
2023-03-06T10:33:00.262Z,20.67
2023-03-06T10:35:06.997Z,18.05
2023-03-06T10:37:20.474Z,21.43
2023-03-06T10:39:23.778Z,19.33
2023-03-06T10:41:31.718Z,19.70
2023-03-06T10:43:36.365Z,22.65
2023-03-06T10:45:49.396Z,20.02
2023-03-06T10:48:11.043Z,20.17
2023-03-06T10:50:28.120Z,21.17
2023-03-06T10:52:33.015Z,17.45
2023-03-06T10:54:38.665Z,22.23
2023-03-06T10:56:42.740Z,18.38
2023-03-06T10:58:45.148Z,15.77
2023-03-06T11:00:47.690Z,16.45
2023-03-06T11:03:07.494Z,21.05
2023-03-06T11:05:20.896Z,22.42
2023-03-06T11:07:26.091Z,26.98
2023-03-06T11:09:28.534Z,26.60
2023-03-06T11:11:37.484Z,39.05
2023-03-06T11:13:42.937Z,26.90
2023-03-06T11:16:04.255Z,24.70
2023-03-06T11:18:10.038Z,25.80
2023-03-06T11:20:49.998Z,18.60
2023-03-06T11:23:06.263Z,17.15
2023-03-06T11:25:13.682Z,28.02
2023-03-06T11:27:24.961Z,19.38
2023-03-06T11:29:43.341Z,18.50
2023-03-06T11:32:11.812Z,17.67
2023-03-06T11:34:50.499Z,14.93
2023-03-06T11:37:13.739Z,14.55
2023-03-06T11:39:23.643Z,19.63
2023-03-06T11:42:04.340Z,13.57
2023-03-06T11:44:32.558Z,14.20
2023-03-06T11:46:38.223Z,15.05
2023-03-06T11:49:03.141Z,18.20
2023-03-06T11:51:21.640Z,16.27
2023-03-06T11:53:34.959Z,17.70
2023-03-06T11:55:45.588Z,15.83
2023-03-06T11:58:08.084Z,14.98
2023-03-06T12:00:19.093Z,13.73
2023-03-06T12:02:40.757Z,14.63
2023-03-06T12:04:46.293Z,14.07
2023-03-06T12:07:09.959Z,14.73
2023-03-06T12:09:33.730Z,16.90
2023-03-06T12:12:09.965Z,20.27
2023-03-06T12:14:40.103Z,14.63
2023-03-06T12:17:04.125Z,15.15
2023-03-06T12:19:24.727Z,19.43
2023-03-06T12:21:48.647Z,12.82
2023-03-06T12:23:55.770Z,14.23
2023-03-06T12:26:01.272Z,19.73
2023-03-06T12:28:23.190Z,10.90
2023-03-06T12:30:45.391Z,15.43
2023-03-06T12:33:07.730Z,13.98
2023-03-06T12:35:19.165Z,15.75
2023-03-06T12:37:57.012Z,14.05
2023-03-06T12:40:09.998Z,14.38
2023-03-06T12:42:26.944Z,18.47
2023-03-06T12:44:40.797Z,12.68
2023-03-06T12:46:49.731Z,13.88
2023-03-06T12:49:06.767Z,12.77
2023-03-06T12:51:13.567Z,11.02
2023-03-06T12:53:32.455Z,9.80
2023-03-06T12:55:46.738Z,18.25
2023-03-06T12:57:49.449Z,18.23
2023-03-06T12:59:52.843Z,14.88
2023-03-06T13:02:31.316Z,14.43
2023-03-06T13:04:45.661Z,16.23
2023-03-06T13:07:23.807Z,17.10
2023-03-06T13:09:43.724Z,14.05
2023-03-06T13:12:05.532Z,14.50
2023-03-06T13:14:48.749Z,17.42
2023-03-06T13:17:19.126Z,10.40
2023-03-06T13:19:24.486Z,9.68
2023-03-06T13:21:42.300Z,9.80
2023-03-06T13:23:51.584Z,9.57
2023-03-06T13:25:54.013Z,11.55
2023-03-06T13:27:56.432Z,14.70
2023-03-06T13:30:07.360Z,9.95
2023-03-06T13:32:19.122Z,10.48
2023-03-06T13:34:49.190Z,13.82
2023-03-06T13:36:51.644Z,12.95
2023-03-06T13:39:01.170Z,20.67
2023-03-06T13:41:42.770Z,17.25
2023-03-06T13:43:46.310Z,13.73
2023-03-06T13:45:49.556Z,12.10
2023-03-06T13:50:44.041Z,12.97
2023-03-06T13:53:03.780Z,15.38
2023-03-06T13:55:13.507Z,10.68
2023-03-06T13:57:44.866Z,9.10
2023-03-06T14:00:11.937Z,10.38
2023-03-06T14:02:34.595Z,11.53
2023-03-06T14:04:53.400Z,10.25
2023-03-06T14:07:28.495Z,10.57
2023-03-06T14:09:45.171Z,10.88
2023-03-06T14:11:52.203Z,11.07
2023-03-06T14:13:56.187Z,12.70
2023-03-06T14:15:58.582Z,11.40
2023-03-06T14:18:12.922Z,13.43
2023-03-06T14:20:17.300Z,14.95
2023-03-06T14:22:23.634Z,14.73
2023-03-06T14:24:38.525Z,10.87
2023-03-06T14:26:51.452Z,9.65
2023-03-06T14:28:58.503Z,9.70
2023-03-06T14:31:03.412Z,11.13
2023-03-06T14:33:12.120Z,12.95
2023-03-06T14:35:30.197Z,10.20
2023-03-06T14:37:33.852Z,9.82
2023-03-06T14:39:42.017Z,9.45
2023-03-06T14:41:44.720Z,10.50
2023-03-06T14:43:47.115Z,7.70
2023-03-06T14:45:58.044Z,10.67
2023-03-06T14:48:00.606Z,8.18
2023-03-06T14:50:25.904Z,12.45
2023-03-06T14:52:29.130Z,19.17
2023-03-06T14:54:39.546Z,23.17
2023-03-06T14:56:43.111Z,22.80
2023-03-06T14:59:05.976Z,25.83
2023-03-06T15:01:10.426Z,11.65
2023-03-06T15:03:19.565Z,10.60
2023-03-06T15:05:26.793Z,13.38
2023-03-06T15:07:31.358Z,13.83
2023-03-06T15:09:34.727Z,11.98
2023-03-06T15:11:56.614Z,19.08
2023-03-06T15:14:03.662Z,17.17
2023-03-06T15:16:25.308Z,16.35
2023-03-06T15:18:30.661Z,16.00
2023-03-06T15:20:43.783Z,19.70
2023-03-06T15:22:50.933Z,15.43
2023-03-06T15:24:53.729Z,24.92
2023-03-06T15:26:56.359Z,23.70
2023-03-06T15:29:09.069Z,24.07
2023-03-06T15:31:20.984Z,22.88
2023-03-06T15:33:25.730Z,19.80
2023-03-06T15:35:37.931Z,16.52
2023-03-06T15:37:40.659Z,18.38
2023-03-06T15:39:43.454Z,16.27
2023-03-06T15:41:45.861Z,15.07
2023-03-06T15:43:48.395Z,27.58
2023-03-06T15:45:51.468Z,19.95
2023-03-06T15:47:55.465Z,22.20
2023-03-06T15:49:57.962Z,20.90
2023-03-06T15:52:00.388Z,24.88
2023-03-06T15:54:11.910Z,30.25
2023-03-06T15:56:15.194Z,38.75
2023-03-06T15:58:21.491Z,36.22
2023-03-06T16:00:30.995Z,37.47
2023-03-06T16:02:33.617Z,35.17
2023-03-06T16:04:36.084Z,45.50
2023-03-06T16:06:38.480Z,44.00
2023-03-06T16:08:40.920Z,37.70
2023-03-06T16:10:44.813Z,42.43
2023-03-06T16:13:02.532Z,42.03
2023-03-06T16:15:06.260Z,25.05
2023-03-06T16:17:09.465Z,12.23
2023-03-06T16:19:25.399Z,14.90
2023-03-06T16:21:28.756Z,18.93
2023-03-06T16:23:31.159Z,20.15
2023-03-06T16:25:33.631Z,34.30
2023-03-06T16:27:36.056Z,25.55
2023-03-06T16:29:38.595Z,26.02
2023-03-06T16:31:41.074Z,31.80
2023-03-06T16:33:43.693Z,24.33
2023-03-06T16:35:47.337Z,15.20
2023-03-06T16:37:50.163Z,41.53
2023-03-06T16:39:52.769Z,17.73
2023-03-06T16:41:56.192Z,38.17
2023-03-06T16:43:58.760Z,51.60
2023-03-06T16:46:05.976Z,41.20
2023-03-06T16:48:11.122Z,31.27
2023-03-06T16:50:36.041Z,37.35
2023-03-06T16:52:38.522Z,33.43
2023-03-06T16:54:41.939Z,28.35
2023-03-06T16:56:46.200Z,37.25
2023-03-06T16:58:49.965Z,41.08
2023-03-06T17:00:52.445Z,36.63
2023-03-06T17:02:55.118Z,33.77
2023-03-06T17:04:57.639Z,40.20
2023-03-06T17:07:00.408Z,31.58
2023-03-06T17:09:02.867Z,33.33
2023-03-06T17:11:06.880Z,29.58
2023-03-06T17:13:10.768Z,25.63
2023-03-06T17:15:13.227Z,27.38
2023-03-06T17:17:15.688Z,20.17
2023-03-06T17:19:18.132Z,21.85
2023-03-06T17:21:20.633Z,22.95
2023-03-06T17:23:26.338Z,26.27
2023-03-06T17:25:28.825Z,25.80
2023-03-06T17:27:31.536Z,23.00
2023-03-06T17:29:34.226Z,28.70
2023-03-06T17:31:36.634Z,22.38
2023-03-06T17:33:39.173Z,31.27
2023-03-06T17:35:41.626Z,31.15
2023-03-06T17:37:44.082Z,36.67
2023-03-06T17:39:46.910Z,28.60
2023-03-06T17:41:50.080Z,32.90
2023-03-06T17:43:55.065Z,41.57
2023-03-06T17:45:57.574Z,56.38
2023-03-06T17:48:00.049Z,38.95
2023-03-06T17:50:02.604Z,54.83
2023-03-06T17:52:05.858Z,47.92
2023-03-06T17:54:08.299Z,47.03
2023-03-06T17:56:13.965Z,41.10
2023-03-06T17:58:16.520Z,36.67
2023-03-06T18:00:19.930Z,37.33
2023-03-06T18:02:22.291Z,33.63
2023-03-06T18:04:25.414Z,49.60
2023-03-06T18:06:30.288Z,56.72
2023-03-06T18:08:32.739Z,34.95
2023-03-06T18:10:35.430Z,45.63
2023-03-06T18:12:37.857Z,47.17
2023-03-06T18:14:40.305Z,46.83
2023-03-06T18:16:42.864Z,43.70
2023-03-06T18:18:45.520Z,47.70
2023-03-06T18:20:48.033Z,42.38
2023-03-06T18:22:50.448Z,44.83
2023-03-06T18:24:52.946Z,44.13
2023-03-06T18:26:55.434Z,58.88
2023-03-06T18:29:04.548Z,51.00
2023-03-06T18:31:13.646Z,54.25
2023-03-06T18:33:16.260Z,46.45
2023-03-06T18:35:18.808Z,45.23
2023-03-06T18:37:21.410Z,38.72
2023-03-06T18:39:23.755Z,41.45
2023-03-06T18:41:26.196Z,44.53
2023-03-06T18:43:28.644Z,52.35
2023-03-06T18:45:31.149Z,60.90
2023-03-06T18:47:33.830Z,65.90
2023-03-06T18:49:37.485Z,51.88
2023-03-06T18:51:41.610Z,55.97
2023-03-06T18:53:44.246Z,47.28
2023-03-06T18:55:54.307Z,44.73
2023-03-06T18:57:57.942Z,43.30
2023-03-06T19:00:00.515Z,30.27
2023-03-06T19:02:03.111Z,42.85
2023-03-06T19:04:06.054Z,34.70
2023-03-06T19:06:11.622Z,48.37
2023-03-06T19:08:15.124Z,44.13
2023-03-06T19:10:17.667Z,42.20
2023-03-06T19:12:20.277Z,51.15
2023-03-06T19:14:22.789Z,39.92
2023-03-06T19:16:27.821Z,65.03
2023-03-06T19:18:30.589Z,46.95
2023-03-06T19:20:33.004Z,41.80
2023-03-06T19:22:36.826Z,68.70
2023-03-06T19:24:39.262Z,53.10
2023-03-06T19:26:42.913Z,60.00
2023-03-06T19:28:46.240Z,59.72
2023-03-06T19:30:48.633Z,43.78
2023-03-06T19:32:51.541Z,56.03
2023-03-06T19:34:58.608Z,58.58
2023-03-06T19:37:01.119Z,60.97
2023-03-06T19:39:05.752Z,62.08
2023-03-06T19:41:13.391Z,57.47
2023-03-06T19:43:15.855Z,57.10
2023-03-06T19:45:18.716Z,55.58
2023-03-06T19:47:21.253Z,64.30
2023-03-06T19:49:23.781Z,45.20
2023-03-06T19:51:27.408Z,42.22
2023-03-06T19:53:29.980Z,46.40
2023-03-06T19:55:32.521Z,40.90
2023-03-06T19:57:35.103Z,72.53
2023-03-06T19:59:37.551Z,56.03
2023-03-06T20:01:40.505Z,63.08
2023-03-06T20:03:43.593Z,41.78
2023-03-06T20:05:47.118Z,42.83
2023-03-06T20:07:49.711Z,44.10
2023-03-06T20:09:52.526Z,47.58
2023-03-06T20:11:54.991Z,40.67
2023-03-06T20:14:01.828Z,38.38
2023-03-06T20:16:04.641Z,40.13
2023-03-06T20:18:07.222Z,42.90
2023-03-06T20:20:11.129Z,41.30
2023-03-06T20:22:13.712Z,44.45
2023-03-06T20:24:16.995Z,42.20
2023-03-06T20:26:20.224Z,40.17
2023-03-06T20:28:23.057Z,42.23
2023-03-06T20:30:31.528Z,38.53
2023-03-06T20:32:39.136Z,45.72
2023-03-06T20:34:41.893Z,44.25
2023-03-06T20:36:47.116Z,43.92
2023-03-06T20:38:50.200Z,48.07
2023-03-06T20:40:55.910Z,37.28
2023-03-06T20:42:58.282Z,39.00
2023-03-06T20:45:00.666Z,41.13
2023-03-06T20:47:03.148Z,47.42
2023-03-06T20:49:05.548Z,39.70
2023-03-06T20:51:15.261Z,34.13
2023-03-06T20:53:17.654Z,38.08
2023-03-06T20:55:20.163Z,28.88
2023-03-06T20:57:22.622Z,31.80
2023-03-06T20:59:25.209Z,26.97
2023-03-06T21:01:28.854Z,21.95
2023-03-06T21:03:31.346Z,28.25
2023-03-06T21:05:33.759Z,24.88
2023-03-06T21:07:36.170Z,20.65
2023-03-06T21:09:39.685Z,19.87
2023-03-06T21:11:42.137Z,22.92
2023-03-06T21:13:44.781Z,18.00
2023-03-06T21:15:47.680Z,20.48
2023-03-06T21:17:50.242Z,22.58
2023-03-06T21:19:52.942Z,24.90
2023-03-06T21:21:55.385Z,23.55
2023-03-06T21:23:58.189Z,24.30
2023-03-06T21:26:00.791Z,19.73
2023-03-06T21:28:03.208Z,23.25
2023-03-06T21:30:06.947Z,17.43
2023-03-06T21:32:09.304Z,17.70
2023-03-06T21:34:12.111Z,18.15
2023-03-06T21:36:14.962Z,16.55
2023-03-06T21:38:17.589Z,15.60
2023-03-06T21:40:20.136Z,15.93
2023-03-06T21:42:22.651Z,16.08
2023-03-06T21:44:25.261Z,16.08
2023-03-06T21:46:28.608Z,15.07
2023-03-06T21:48:31.062Z,14.25
2023-03-06T21:50:33.524Z,13.70
2023-03-06T21:52:36.057Z,13.27
2023-03-06T21:54:38.523Z,11.15
2023-03-06T21:56:40.915Z,11.68
2023-03-06T21:58:43.487Z,10.90
2023-03-06T22:00:45.950Z,24.03
2023-03-06T22:02:48.449Z,35.42
2023-03-06T22:04:52.613Z,55.72
2023-03-06T22:06:55.024Z,41.38
2023-03-06T22:08:59.134Z,40.00
2023-03-06T22:11:11.643Z,28.70
2023-03-06T22:13:14.124Z,34.10
2023-03-06T22:15:16.643Z,28.00
2023-03-06T22:17:19.040Z,14.50
2023-03-06T22:19:21.455Z,18.58
2023-03-06T22:21:24.500Z,10.67
2023-03-06T22:23:26.996Z,14.65
2023-03-06T22:25:31.379Z,12.95
2023-03-06T22:27:33.818Z,12.57
2023-03-06T22:29:36.324Z,9.23
2023-03-06T22:31:40.284Z,13.23
2023-03-06T22:33:43.154Z,11.65
2023-03-06T22:35:45.579Z,10.93
2023-03-06T22:37:48.035Z,13.13
2023-03-06T22:39:50.378Z,10.65
2023-03-06T22:41:55.757Z,10.17
2023-03-06T22:43:59.883Z,10.27
2023-03-06T22:46:07.114Z,13.82
2023-03-06T22:48:11.278Z,11.77
2023-03-06T22:50:13.869Z,14.15
2023-03-06T22:52:19.568Z,13.17
2023-03-06T22:54:21.965Z,17.23
2023-03-06T22:56:24.874Z,19.05
2023-03-06T22:58:34.122Z,19.95
2023-03-06T23:00:36.525Z,18.90
2023-03-06T23:02:39.062Z,26.13
2023-03-06T23:04:41.521Z,19.20
2023-03-06T23:06:44.704Z,17.55
2023-03-06T23:08:51.920Z,19.30
2023-03-06T23:10:54.309Z,12.98
2023-03-06T23:12:56.770Z,10.43
2023-03-06T23:14:59.347Z,12.25
2023-03-06T23:17:01.765Z,11.48
2023-03-06T23:19:04.525Z,8.68
2023-03-06T23:21:11.938Z,11.00
2023-03-06T23:23:14.361Z,11.20
2023-03-06T23:25:16.848Z,9.65
2023-03-06T23:27:19.668Z,10.32
2023-03-06T23:29:22.533Z,15.48
2023-03-06T23:31:29.970Z,12.52
2023-03-06T23:33:32.425Z,13.07
2023-03-06T23:35:36.035Z,12.27
2023-03-06T23:37:38.480Z,19.33
2023-03-06T23:39:40.962Z,21.40
2023-03-06T23:41:43.370Z,22.40
2023-03-06T23:43:46.961Z,25.80
2023-03-06T23:45:55.365Z,23.90
2023-03-06T23:47:57.910Z,24.83
2023-03-06T23:50:00.357Z,22.88
2023-03-06T23:52:02.848Z,20.20
2023-03-06T23:54:05.227Z,22.63
2023-03-06T23:56:08.243Z,19.40
2023-03-06T23:58:11.406Z,17.73
